createdAt,value
2023-01-04T10:08:36.151Z,60.39
2023-01-04T10:11:31.648Z,60.39
2023-01-04T10:14:30.633Z,60.43
2023-01-04T10:17:20.660Z,60.23
2023-01-04T10:23:21.986Z,60.32
2023-01-04T10:25:57.339Z,60.30
2023-01-04T10:28:59.139Z,60.08
2023-01-04T10:31:49.645Z,59.90
2023-01-04T10:34:22.618Z,59.86
2023-01-04T10:36:51.718Z,59.76
2023-01-04T10:39:27.006Z,59.77
2023-01-04T10:41:59.429Z,59.77
2023-01-04T10:44:50.637Z,59.54
2023-01-04T10:47:31.107Z,59.42
2023-01-04T10:50:01.779Z,59.57
2023-01-04T10:52:43.253Z,59.62
2023-01-04T10:55:27.677Z,59.65
2023-01-04T10:58:09.117Z,59.79
2023-01-04T11:00:44.479Z,59.67
2023-01-04T11:03:33.439Z,59.71
2023-01-04T11:06:19.016Z,59.79
2023-01-04T11:09:13.369Z,59.71
2023-01-04T11:11:47.840Z,59.73
2023-01-04T11:14:15.915Z,59.77
2023-01-04T11:16:50.253Z,59.60
2023-01-04T11:19:17.493Z,59.63
2023-01-04T11:21:51.468Z,59.61
2023-01-04T11:24:34.612Z,59.59
2023-01-04T11:27:07.871Z,59.56
2023-01-04T11:29:53.095Z,59.53
2023-01-04T11:32:33.015Z,59.57
2023-01-04T11:34:59.987Z,59.65
2023-01-04T11:37:33.463Z,59.55
2023-01-04T11:40:21.399Z,59.56
2023-01-04T11:43:10.240Z,59.59
2023-01-04T11:45:39.997Z,59.56
2023-01-04T11:48:14.536Z,59.44
2023-01-04T11:50:47.065Z,59.61
2023-01-04T11:53:34.723Z,59.55
2023-01-04T11:56:09.596Z,59.59
2023-01-04T11:58:37.493Z,59.55
2023-01-04T12:01:23.765Z,59.49
2023-01-04T12:03:51.356Z,59.37
2023-01-04T12:06:25.140Z,59.46
2023-01-04T12:08:52.123Z,59.30
2023-01-04T12:11:26.299Z,59.17
2023-01-04T12:13:53.339Z,59.28
2023-01-04T12:16:48.162Z,59.21
2023-01-04T12:19:20.196Z,59.26
2023-01-04T12:21:53.417Z,59.10
2023-01-04T12:24:25.136Z,59.15
2023-01-04T12:26:54.631Z,58.86
2023-01-04T12:29:24.310Z,58.93
2023-01-04T12:32:01.840Z,58.97
2023-01-04T12:34:28.801Z,58.88
2023-01-04T12:37:05.290Z,58.90
2023-01-04T12:39:43.852Z,58.97
2023-01-04T12:42:17.645Z,58.87
2023-01-04T12:44:47.116Z,58.98
2023-01-04T12:47:39.039Z,58.83
2023-01-04T12:50:18.443Z,58.65
2023-01-04T12:55:43.877Z,58.67
2023-01-04T12:59:23.604Z,58.67
2023-01-04T13:01:33.073Z,58.69
2023-01-04T13:04:06.106Z,58.91
2023-01-04T13:06:42.850Z,58.79
2023-01-04T13:09:23.766Z,58.83
2023-01-04T13:12:32.961Z,58.89
2023-01-04T13:15:06.968Z,58.99
2023-01-04T13:17:40.165Z,59.10
2023-01-04T13:20:19.606Z,59.03
2023-01-04T13:22:53.605Z,59.16
2023-01-04T13:25:22.567Z,59.34
2023-01-04T13:28:04.331Z,59.53
2023-01-04T13:30:39.011Z,59.76
2023-01-04T13:33:26.760Z,59.86
2023-01-04T13:36:09.004Z,60.24
2023-01-04T13:38:39.451Z,60.11
2023-01-04T13:41:22.338Z,60.20
2023-01-04T13:44:08.162Z,60.04
2023-01-04T13:46:35.243Z,60.03
2023-01-04T13:49:03.417Z,59.83
2023-01-04T13:51:36.968Z,59.89
2023-01-04T13:54:07.565Z,59.90
2023-01-04T13:56:35.607Z,59.77
2023-01-04T13:59:03.129Z,59.88
2023-01-04T14:01:37.370Z,59.83
2023-01-04T14:04:07.937Z,59.95
2023-01-04T14:06:41.782Z,59.93
2023-01-04T14:09:11.816Z,59.83
2023-01-04T14:12:06.141Z,59.76
2023-01-04T14:14:45.390Z,59.72
2023-01-04T14:17:12.752Z,59.74
2023-01-04T14:19:47.658Z,59.59
2023-01-04T14:22:28.128Z,59.60
2023-01-04T14:25:13.216Z,59.87
2023-01-04T14:27:45.552Z,59.86
2023-01-04T14:30:18.331Z,59.86
2023-01-04T14:33:00.729Z,59.69
2023-01-04T14:35:29.245Z,59.65
2023-01-04T14:38:03.785Z,59.40
2023-01-04T14:40:33.877Z,59.44
2023-01-04T14:43:00.863Z,59.53
2023-01-04T14:45:28.024Z,59.52
2023-01-04T14:47:54.906Z,59.51
2023-01-04T14:50:21.944Z,59.59
2023-01-04T14:52:52.788Z,59.52
2023-01-04T14:55:20.117Z,59.48
2023-01-04T14:57:47.143Z,59.52
2023-01-04T15:00:19.578Z,59.54
2023-01-04T15:02:51.098Z,59.53
2023-01-04T15:05:21.492Z,59.63
2023-01-04T15:07:48.416Z,59.50
2023-01-04T15:10:23.051Z,59.56
2023-01-04T15:12:50.473Z,59.44
2023-01-04T15:15:18.139Z,59.39
2023-01-04T15:17:46.227Z,59.37
2023-01-04T15:20:14.547Z,59.28
2023-01-04T15:22:41.590Z,59.39
2023-01-04T15:25:10.178Z,59.20
2023-01-04T15:27:42.145Z,59.44
2023-01-04T15:30:11.611Z,59.35
2023-01-04T15:32:39.471Z,59.33
2023-01-04T15:35:07.448Z,59.20
2023-01-04T15:37:34.453Z,59.29
2023-01-04T15:40:03.209Z,59.24
2023-01-04T15:42:49.566Z,59.17
2023-01-04T15:45:17.595Z,59.37
2023-01-04T15:47:44.507Z,59.15
2023-01-04T15:50:11.391Z,59.07
2023-01-04T15:52:38.341Z,59.23
2023-01-04T15:55:05.714Z,58.99
2023-01-04T15:57:32.732Z,59.22
2023-01-04T15:59:59.831Z,59.10
2023-01-04T16:02:27.205Z,59.22
2023-01-04T16:04:54.348Z,58.99
2023-01-04T16:07:21.410Z,59.06
2023-01-04T16:09:48.615Z,59.04
2023-01-04T16:12:34.284Z,58.89
2023-01-04T16:15:01.472Z,58.87
2023-01-04T16:17:28.920Z,58.93
2023-01-04T16:19:55.910Z,58.75
2023-01-04T16:22:22.959Z,58.72
2023-01-04T16:27:39.433Z,58.89
2023-01-04T16:30:11.342Z,58.79
2023-01-04T16:32:44.843Z,58.77
2023-01-04T16:35:12.946Z,58.72
2023-01-04T16:37:40.319Z,58.61
2023-01-04T16:40:08.981Z,58.70
2023-01-04T16:42:37.958Z,58.75
2023-01-04T16:45:06.259Z,58.66
2023-01-04T16:47:41.855Z,58.76
2023-01-04T16:50:10.091Z,58.84
2023-01-04T16:52:37.324Z,58.89
2023-01-04T16:55:05.663Z,58.75
2023-01-04T16:57:32.827Z,58.90
2023-01-04T16:59:59.886Z,58.72
2023-01-04T17:02:26.957Z,58.70
2023-01-04T17:04:55.589Z,58.73
2023-01-04T17:07:22.952Z,58.79
2023-01-04T17:09:50.199Z,58.73
2023-01-04T17:17:51.372Z,58.78
2023-01-04T17:20:19.052Z,58.79
2023-01-04T17:22:45.995Z,58.89
2023-01-04T17:25:13.020Z,58.84
2023-01-04T17:27:40.095Z,58.80
2023-01-04T17:30:07.604Z,58.76
2023-01-04T17:32:34.556Z,58.67
2023-01-04T17:35:01.545Z,58.63
2023-01-04T17:37:28.575Z,58.71
2023-01-04T17:39:55.676Z,58.60
2023-01-04T17:42:23.391Z,58.69
2023-01-04T17:44:50.312Z,58.67
2023-01-04T17:47:17.364Z,58.46
2023-01-04T17:49:44.280Z,58.67
2023-01-04T17:52:16.316Z,58.37
2023-01-04T17:54:47.208Z,58.49
2023-01-04T17:57:14.182Z,58.49
2023-01-04T17:59:44.380Z,58.32
2023-01-04T18:02:11.566Z,58.46
2023-01-04T18:04:38.614Z,58.24
2023-01-04T18:07:05.669Z,58.25
2023-01-04T18:09:32.739Z,58.22
2023-01-04T18:11:59.810Z,58.16
2023-01-04T18:14:27.872Z,58.18
2023-01-04T18:16:58.630Z,58.19
2023-01-04T18:19:29.160Z,58.16
2023-01-04T18:21:57.025Z,58.03
2023-01-04T18:24:39.896Z,58.11
2023-01-04T18:27:26.201Z,58.12
2023-01-04T18:29:55.264Z,58.04
2023-01-04T18:32:24.093Z,58.34
2023-01-04T18:34:51.181Z,58.20
2023-01-04T18:37:19.101Z,58.36
2023-01-04T18:39:47.348Z,58.48
2023-01-04T18:42:15.727Z,58.51
2023-01-04T18:44:47.785Z,58.68
2023-01-04T18:47:16.288Z,58.65
2023-01-04T18:49:43.496Z,58.76
2023-01-04T18:52:10.640Z,58.78
2023-01-04T18:54:37.627Z,58.80
2023-01-04T18:57:05.317Z,58.93
2023-01-04T18:59:33.015Z,58.66
2023-01-04T19:02:01.958Z,58.61
2023-01-04T19:04:35.134Z,58.57
2023-01-04T19:07:04.988Z,58.65
2023-01-04T19:09:31.968Z,58.60
2023-01-04T19:11:59.515Z,58.53
2023-01-04T19:14:26.470Z,58.61
2023-01-04T19:16:54.317Z,58.47
2023-01-04T19:19:21.353Z,58.51
2023-01-04T19:21:48.877Z,58.32
2023-01-04T19:24:16.427Z,58.44
2023-01-04T19:26:43.708Z,58.50
2023-01-04T19:29:10.834Z,58.34
2023-01-04T19:31:39.028Z,58.27
2023-01-04T19:34:08.789Z,58.44
2023-01-04T19:36:36.029Z,58.63
2023-01-04T19:39:09.525Z,58.90
2023-01-04T19:41:38.362Z,59.06
2023-01-04T19:44:08.607Z,59.14
2023-01-04T19:46:38.493Z,59.26
2023-01-04T19:49:10.908Z,59.20
2023-01-04T19:51:43.969Z,59.43
2023-01-04T19:54:12.109Z,59.25
2023-01-04T19:56:39.985Z,59.55
2023-01-04T19:59:07.152Z,59.48
2023-01-04T20:01:34.325Z,59.72
2023-01-04T20:04:01.565Z,60.02
2023-01-04T20:06:28.513Z,60.05
2023-01-04T20:08:55.544Z,60.00
2023-01-04T20:11:22.883Z,59.87
2023-01-04T20:13:49.917Z,59.89
2023-01-04T20:16:17.111Z,59.89
2023-01-04T20:18:44.310Z,59.78
2023-01-04T20:21:14.072Z,59.73
2023-01-04T20:23:42.035Z,59.66
2023-01-04T20:26:14.385Z,59.73
2023-01-04T20:28:44.229Z,59.62
2023-01-04T20:31:13.812Z,59.74
2023-01-04T20:33:42.240Z,59.82
2023-01-04T20:36:19.729Z,59.62
2023-01-04T20:38:48.082Z,59.79
2023-01-04T20:41:18.821Z,59.81
2023-01-04T20:43:47.321Z,59.77
2023-01-04T20:46:17.561Z,59.96
2023-01-04T20:48:45.855Z,60.10
2023-01-04T20:51:15.867Z,59.99
2023-01-04T20:53:42.865Z,60.18
2023-01-04T20:56:16.312Z,59.92
2023-01-04T20:58:45.716Z,60.20
2023-01-04T21:01:13.535Z,60.35
2023-01-04T21:03:41.371Z,60.93
2023-01-04T21:06:12.675Z,61.37
2023-01-04T21:08:41.408Z,61.57
2023-01-04T21:11:09.608Z,61.40
2023-01-04T21:13:36.670Z,61.12
2023-01-04T21:16:04.874Z,61.29
2023-01-04T21:18:33.354Z,60.94
2023-01-04T21:21:05.941Z,60.79
2023-01-04T21:23:32.880Z,60.42
2023-01-04T21:26:07.947Z,60.26
2023-01-04T21:28:36.608Z,59.90
2023-01-04T21:31:11.905Z,59.78
2023-01-04T21:33:40.317Z,59.65
2023-01-04T21:36:19.849Z,59.47
2023-01-04T21:38:57.388Z,59.27
2023-01-04T21:41:32.532Z,59.28
2023-01-04T21:44:01.420Z,58.98
2023-01-04T21:46:29.671Z,58.98
2023-01-04T21:48:59.610Z,58.87
2023-01-04T21:51:26.588Z,58.70
2023-01-04T21:53:56.457Z,58.65
2023-01-04T21:56:25.485Z,58.60
2023-01-04T21:58:52.666Z,58.55
2023-01-04T22:01:29.856Z,58.56
2023-01-04T22:03:59.851Z,58.37
2023-01-04T22:06:27.496Z,58.56
2023-01-04T22:08:54.569Z,58.37
2023-01-04T22:11:24.636Z,58.36
2023-01-04T22:13:52.139Z,58.35
2023-01-04T22:16:19.925Z,58.19
2023-01-04T22:18:48.753Z,58.29
2023-01-04T22:21:19.527Z,58.26
2023-01-04T22:23:49.238Z,58.34
2023-01-04T22:26:16.539Z,58.18
2023-01-04T22:28:45.072Z,58.07
2023-01-04T22:31:14.018Z,58.01
2023-01-04T22:33:41.874Z,58.08
2023-01-04T22:36:17.408Z,57.99
2023-01-04T22:38:50.615Z,57.82
2023-01-04T22:41:19.377Z,57.75
2023-01-04T22:43:47.384Z,57.67
2023-01-04T22:46:17.593Z,57.67
2023-01-04T22:48:47.646Z,57.64
2023-01-04T22:51:16.399Z,57.58
2023-01-04T22:53:44.200Z,57.48
2023-01-04T22:56:22.966Z,57.48
2023-01-04T22:58:54.628Z,57.44
2023-01-04T23:01:24.361Z,57.40
2023-01-04T23:03:52.276Z,57.33
2023-01-04T23:06:20.025Z,57.39
2023-01-04T23:08:47.035Z,57.21
2023-01-04T23:11:18.388Z,57.04
2023-01-04T23:13:47.178Z,57.16
2023-01-04T23:16:16.143Z,57.15
2023-01-04T23:18:46.468Z,56.98
2023-01-04T23:21:14.743Z,57.22
2023-01-04T23:23:42.669Z,56.99
2023-01-04T23:26:16.102Z,56.99
2023-01-04T23:28:44.068Z,57.13
2023-01-04T23:31:13.580Z,57.14
2023-01-04T23:33:40.895Z,57.07
2023-01-04T23:36:16.830Z,57.17
2023-01-04T23:38:49.477Z,56.96
2023-01-04T23:41:16.579Z,57.07
2023-01-04T23:43:43.655Z,57.15
2023-01-04T23:46:19.612Z,57.03
2023-01-04T23:48:46.583Z,57.01
2023-01-04T23:51:13.771Z,56.95
2023-01-04T23:53:40.645Z,56.97
2023-01-04T23:56:14.749Z,57.12
2023-01-04T23:58:42.057Z,57.13
